Annapolis, California
Current Conditions -  °F | °C
As of 8:43 AM on Friday 24 Oct 2014 (Local Time) from KUKI Reporting Station
Overcast Overcast  
Wind Chill: 13°   Ceiling: 400
Heat Index: 13°   Visibility: 9mi
Dew Point: 12°   Wind: 5mph
Humidity: 96%   Direction: 180°S
Pressure: 29.96"   Gusts: NA
Location:  38.71°N, 123.35°W
Report Text: KUKI 241543Z AUTO 18004KT 9SM OVC004 13/12 A2996 RMK AO2 T01280122
Loading
Personal Weather Stations






























Interactive Weather Map
Tropical Storm Tracking
New forecast layout! Learn more

10-Day Weather Forecast

Advertisements
Track Severe Weather on mobile